Terminal Aerodrome Forecast
Issued by NWS

Home | Current Version | Previous Version | Text Only | Print | Product List | Glossary On
Versions: 1 2 3 4 5 6 7 8 9 10 11 12 13 14
241
FTUS46 KMFR 221450 AAA
TAFLMT
TAF AMD
KLMT 221450Z 2215/2312 00000KT 4SM FU HZ BKN035
     FM222200 26008KT 4SM FU HZ SCT020
     FM222300 28010KT P6SM SCT070 PROB30 2300/2304 VRB15G25KT 4SM
      TSRA BKN050CB
     FM230400 VRB04KT P6SM SCT080=

USA.gov is the U.S. government's official web portal to all federal, state and local government web resources and services.